sensor_id;sensor_type;location;lat;lon;timestamp;P1;durP1;ratioP1;P2;durP2;ratioP2
177;SDS011;77;48.792;9.032;2023-04-03T00:00:28;8.37;;;4.80;;
177;SDS011;77;48.792;9.032;2023-04-03T00:02:53;7.87;;;4.90;;
177;SDS011;77;48.792;9.032;2023-04-03T00:05:20;7.60;;;5.03;;
177;SDS011;77;48.792;9.032;2023-04-03T00:07:45;7.77;;;4.93;;
177;SDS011;77;48.792;9.032;2023-04-03T00:10:10;9.90;;;4.97;;
177;SDS011;77;48.792;9.032;2023-04-03T00:12:35;8.23;;;4.67;;
177;SDS011;77;48.792;9.032;2023-04-03T00:15:01;8.53;;;4.60;;
177;SDS011;77;48.792;9.032;2023-04-03T00:17:26;7.03;;;4.60;;
177;SDS011;77;48.792;9.032;2023-04-03T00:19:51;8.50;;;5.05;;
177;SDS011;77;48.792;9.032;2023-04-03T00:22:17;7.88;;;4.93;;
177;SDS011;77;48.792;9.032;2023-04-03T00:24:42;7.77;;;4.80;;
177;SDS011;77;48.792;9.032;2023-04-03T00:27:08;7.60;;;5.07;;
177;SDS011;77;48.792;9.032;2023-04-03T00:29:33;7.30;;;4.60;;
177;SDS011;77;48.792;9.032;2023-04-03T00:31:58;7.90;;;4.93;;
177;SDS011;77;48.792;9.032;2023-04-03T00:34:24;7.77;;;4.90;;
177;SDS011;77;48.792;9.032;2023-04-03T00:36:50;9.50;;;5.00;;
177;SDS011;77;48.792;9.032;2023-04-03T00:39:16;9.87;;;4.80;;
177;SDS011;77;48.792;9.032;2023-04-03T00:41:41;6.90;;;4.70;;
177;SDS011;77;48.792;9.032;2023-04-03T00:46:46;8.67;;;5.07;;
177;SDS011;77;48.792;9.032;2023-04-03T00:49:12;7.40;;;4.83;;
177;SDS011;77;48.792;9.032;2023-04-03T00:51:37;6.87;;;4.53;;
177;SDS011;77;48.792;9.032;2023-04-03T00:54:03;8.33;;;4.43;;
177;SDS011;77;48.792;9.032;2023-04-03T00:56:31;10.53;;;4.97;;
177;SDS011;77;48.792;9.032;2023-04-03T00:58:57;7.83;;;4.90;;
177;SDS011;77;48.792;9.032;2023-04-03T01:01:24;7.37;;;4.80;;
177;SDS011;77;48.792;9.032;2023-04-03T01:03:49;10.60;;;5.30;;
177;SDS011;77;48.792;9.032;2023-04-03T01:06:15;8.83;;;4.90;;
177;SDS011;77;48.792;9.032;2023-04-03T01:08:41;7.03;;;4.57;;
177;SDS011;77;48.792;9.032;2023-04-03T01:11:06;6.73;;;4.47;;
177;SDS011;77;48.792;9.032;2023-04-03T01:13:32;8.23;;;4.80;;
177;SDS011;77;48.792;9.032;2023-04-03T01:16:00;7.37;;;4.80;;
177;SDS011;77;48.792;9.032;2023-04-03T01:18:25;7.47;;;4.63;;
177;SDS011;77;48.792;9.032;2023-04-03T01:23:37;8.00;;;4.90;;
177;SDS011;77;48.792;9.032;2023-04-03T01:26:05;9.77;;;4.87;;
177;SDS011;77;48.792;9.032;2023-04-03T01:28:31;9.70;;;4.97;;
177;SDS011;77;48.792;9.032;2023-04-03T01:31:00;8.23;;;4.80;;
177;SDS011;77;48.792;9.032;2023-04-03T01:33:29;8.30;;;5.10;;
177;SDS011;77;48.792;9.032;2023-04-03T01:35:54;8.53;;;4.90;;
177;SDS011;77;48.792;9.032;2023-04-03T01:38:19;7.13;;;4.80;;
177;SDS011;77;48.792;9.032;2023-04-03T01:40:44;9.07;;;5.03;;
177;SDS011;77;48.792;9.032;2023-04-03T01:43:09;7.80;;;5.20;;
177;SDS011;77;48.792;9.032;2023-04-03T01:45:35;9.07;;;4.97;;
177;SDS011;77;48.792;9.032;2023-04-03T01:48:00;8.13;;;4.63;;
177;SDS011;77;48.792;9.032;2023-04-03T01:50:26;7.00;;;4.63;;
177;SDS011;77;48.792;9.032;2023-04-03T01:52:52;8.30;;;5.10;;
177;SDS011;77;48.792;9.032;2023-04-03T01:55:17;11.37;;;5.00;;
177;SDS011;77;48.792;9.032;2023-04-03T01:57:42;8.05;;;4.85;;
177;SDS011;77;48.792;9.032;2023-04-03T02:00:07;8.87;;;5.00;;
177;SDS011;77;48.792;9.032;2023-04-03T02:02:33;9.07;;;5.00;;
177;SDS011;77;48.792;9.032;2023-04-03T02:04:58;8.67;;;5.17;;
177;SDS011;77;48.792;9.032;2023-04-03T02:07:24;7.80;;;4.82;;
177;SDS011;77;48.792;9.032;2023-04-03T02:09:50;6.70;;;4.47;;
177;SDS011;77;48.792;9.032;2023-04-03T02:12:15;8.27;;;4.77;;
177;SDS011;77;48.792;9.032;2023-04-03T02:14:41;8.97;;;4.90;;
177;SDS011;77;48.792;9.032;2023-04-03T02:17:06;7.22;;;4.78;;
177;SDS011;77;48.792;9.032;2023-04-03T02:19:31;7.90;;;4.80;;
177;SDS011;77;48.792;9.032;2023-04-03T02:21:56;8.17;;;5.37;;
177;SDS011;77;48.792;9.032;2023-04-03T02:24:23;10.83;;;4.80;;
177;SDS011;77;48.792;9.032;2023-04-03T02:26:48;8.57;;;5.13;;
177;SDS011;77;48.792;9.032;2023-04-03T02:29:13;8.02;;;5.05;;
177;SDS011;77;48.792;9.032;2023-04-03T02:31:38;7.70;;;4.83;;
177;SDS011;77;48.792;9.032;2023-04-03T02:34:03;7.55;;;4.80;;
177;SDS011;77;48.792;9.032;2023-04-03T02:36:28;9.23;;;5.30;;
177;SDS011;77;48.792;9.032;2023-04-03T02:38:54;9.37;;;5.13;;
177;SDS011;77;48.792;9.032;2023-04-03T02:41:20;9.47;;;5.40;;
177;SDS011;77;48.792;9.032;2023-04-03T02:43:45;9.40;;;5.27;;
177;SDS011;77;48.792;9.032;2023-04-03T02:46:10;9.30;;;5.30;;
177;SDS011;77;48.792;9.032;2023-04-03T02:48:36;8.13;;;4.80;;
177;SDS011;77;48.792;9.032;2023-04-03T02:51:01;7.60;;;4.87;;
177;SDS011;77;48.792;9.032;2023-04-03T02:53:26;7.23;;;4.77;;
177;SDS011;77;48.792;9.032;2023-04-03T02:55:51;8.50;;;4.97;;
177;SDS011;77;48.792;9.032;2023-04-03T02:58:18;7.45;;;5.35;;
177;SDS011;77;48.792;9.032;2023-04-03T03:00:43;9.00;;;5.03;;
177;SDS011;77;48.792;9.032;2023-04-03T03:03:08;7.70;;;5.13;;
177;SDS011;77;48.792;9.032;2023-04-03T03:05:33;10.20;;;5.40;;
177;SDS011;77;48.792;9.032;2023-04-03T03:07:58;9.07;;;5.67;;
177;SDS011;77;48.792;9.032;2023-04-03T03:10:24;11.57;;;5.80;;
177;SDS011;77;48.792;9.032;2023-04-03T03:12:49;8.53;;;5.00;;
177;SDS011;77;48.792;9.032;2023-04-03T03:15:15;7.80;;;5.10;;
177;SDS011;77;48.792;9.032;2023-04-03T03:17:41;9.73;;;5.30;;
177;SDS011;77;48.792;9.032;2023-04-03T03:20:07;8.70;;;5.10;;
177;SDS011;77;48.792;9.032;2023-04-03T03:22:33;7.40;;;5.20;;
177;SDS011;77;48.792;9.032;2023-04-03T03:24:59;9.03;;;5.60;;
177;SDS011;77;48.792;9.032;2023-04-03T03:27:24;7.47;;;4.85;;
177;SDS011;77;48.792;9.032;2023-04-03T03:29:49;8.60;;;5.00;;
177;SDS011;77;48.792;9.032;2023-04-03T03:32:16;7.70;;;4.53;;
177;SDS011;77;48.792;9.032;2023-04-03T03:34:41;7.97;;;5.17;;
177;SDS011;77;48.792;9.032;2023-04-03T03:37:06;8.17;;;4.93;;
177;SDS011;77;48.792;9.032;2023-04-03T03:39:31;6.70;;;4.80;;
177;SDS011;77;48.792;9.032;2023-04-03T03:41:56;8.65;;;5.13;;
177;SDS011;77;48.792;9.032;2023-04-03T03:44:21;8.03;;;4.80;;
177;SDS011;77;48.792;9.032;2023-04-03T03:46:46;6.90;;;4.90;;
177;SDS011;77;48.792;9.032;2023-04-03T03:49:13;6.90;;;4.70;;
177;SDS011;77;48.792;9.032;2023-04-03T03:51:38;7.57;;;4.83;;
177;SDS011;77;48.792;9.032;2023-04-03T03:54:04;7.20;;;4.80;;
177;SDS011;77;48.792;9.032;2023-04-03T03:56:29;7.47;;;4.70;;
177;SDS011;77;48.792;9.032;2023-04-03T03:58:54;7.72;;;4.60;;
177;SDS011;77;48.792;9.032;2023-04-03T04:01:19;7.07;;;4.88;;
177;SDS011;77;48.792;9.032;2023-04-03T04:03:45;9.07;;;4.80;;
177;SDS011;77;48.792;9.032;2023-04-03T04:06:11;9.30;;;4.67;;
177;SDS011;77;48.792;9.032;2023-04-03T04:08:36;6.23;;;4.60;;
177;SDS011;77;48.792;9.032;2023-04-03T04:11:01;8.43;;;4.67;;
177;SDS011;77;48.792;9.032;2023-04-03T04:13:26;7.97;;;4.80;;
177;SDS011;77;48.792;9.032;2023-04-03T04:15:52;7.10;;;4.55;;
177;SDS011;77;48.792;9.032;2023-04-03T04:18:17;6.57;;;4.55;;
177;SDS011;77;48.792;9.032;2023-04-03T04:20:42;7.50;;;5.17;;
177;SDS011;77;48.792;9.032;2023-04-03T04:23:10;6.73;;;4.77;;
177;SDS011;77;48.792;9.032;2023-04-03T04:25:35;7.10;;;4.60;;
177;SDS011;77;48.792;9.032;2023-04-03T04:28:01;8.13;;;4.60;;
177;SDS011;77;48.792;9.032;2023-04-03T04:30:26;6.15;;;4.57;;
177;SDS011;77;48.792;9.032;2023-04-03T04:32:51;8.17;;;5.13;;
177;SDS011;77;48.792;9.032;2023-04-03T04:35:16;7.40;;;4.83;;
177;SDS011;77;48.792;9.032;2023-04-03T04:37:41;6.87;;;5.07;;
177;SDS011;77;48.792;9.032;2023-04-03T04:40:08;9.27;;;4.70;;
177;SDS011;77;48.792;9.032;2023-04-03T04:42:34;6.33;;;4.53;;
177;SDS011;77;48.792;9.032;2023-04-03T04:44:59;6.85;;;4.82;;
177;SDS011;77;48.792;9.032;2023-04-03T04:47:24;6.00;;;4.30;;
177;SDS011;77;48.792;9.032;2023-04-03T04:49:49;7.10;;;4.80;;
177;SDS011;77;48.792;9.032;2023-04-03T04:52:14;7.07;;;4.97;;
177;SDS011;77;48.792;9.032;2023-04-03T04:54:39;7.20;;;5.07;;
177;SDS011;77;48.792;9.032;2023-04-03T04:57:06;7.77;;;4.97;;
177;SDS011;77;48.792;9.032;2023-04-03T04:59:31;7.40;;;4.77;;
177;SDS011;77;48.792;9.032;2023-04-03T05:01:56;8.20;;;5.27;;
177;SDS011;77;48.792;9.032;2023-04-03T05:04:21;7.53;;;4.57;;
177;SDS011;77;48.792;9.032;2023-04-03T05:06:47;7.53;;;4.70;;
177;SDS011;77;48.792;9.032;2023-04-03T05:09:12;8.43;;;4.70;;
177;SDS011;77;48.792;9.032;2023-04-03T05:11:37;6.93;;;5.00;;
177;SDS011;77;48.792;9.032;2023-04-03T05:14:03;7.97;;;4.90;;
177;SDS011;77;48.792;9.032;2023-04-03T05:16:29;7.40;;;4.70;;
177;SDS011;77;48.792;9.032;2023-04-03T05:18:54;7.25;;;4.88;;
177;SDS011;77;48.792;9.032;2023-04-03T05:21:19;7.07;;;4.60;;
177;SDS011;77;48.792;9.032;2023-04-03T05:23:44;8.20;;;4.80;;
177;SDS011;77;48.792;9.032;2023-04-03T05:26:09;7.30;;;4.77;;
177;SDS011;77;48.792;9.032;2023-04-03T05:28:34;6.80;;;4.60;;
177;SDS011;77;48.792;9.032;2023-04-03T05:31:01;6.97;;;4.43;;
177;SDS011;77;48.792;9.032;2023-04-03T05:33:27;6.73;;;4.80;;
177;SDS011;77;48.792;9.032;2023-04-03T05:35:52;6.23;;;4.73;;
177;SDS011;77;48.792;9.032;2023-04-03T05:38:17;8.13;;;4.93;;
177;SDS011;77;48.792;9.032;2023-04-03T05:40:42;8.90;;;5.00;;
177;SDS011;77;48.792;9.032;2023-04-03T05:43:08;7.30;;;4.50;;
177;SDS011;77;48.792;9.032;2023-04-03T05:45:33;12.13;;;5.20;;
177;SDS011;77;48.792;9.032;2023-04-03T05:47:59;7.30;;;4.97;;
177;SDS011;77;48.792;9.032;2023-04-03T05:50:24;10.90;;;5.40;;
177;SDS011;77;48.792;9.032;2023-04-03T05:52:50;8.50;;;5.07;;
177;SDS011;77;48.792;9.032;2023-04-03T05:55:16;7.93;;;5.00;;
177;SDS011;77;48.792;9.032;2023-04-03T05:57:41;8.57;;;4.80;;
177;SDS011;77;48.792;9.032;2023-04-03T06:00:07;7.57;;;4.80;;
177;SDS011;77;48.792;9.032;2023-04-03T06:02:32;7.83;;;5.13;;
177;SDS011;77;48.792;9.032;2023-04-03T06:04:59;6.57;;;4.30;;
177;SDS011;77;48.792;9.032;2023-04-03T06:07:24;7.50;;;4.93;;
177;SDS011;77;48.792;9.032;2023-04-03T06:09:50;8.20;;;4.77;;
177;SDS011;77;48.792;9.032;2023-04-03T06:12:15;7.70;;;4.70;;
177;SDS011;77;48.792;9.032;2023-04-03T06:14:40;7.73;;;4.33;;
177;SDS011;77;48.792;9.032;2023-04-03T06:17:06;8.23;;;4.57;;
177;SDS011;77;48.792;9.032;2023-04-03T06:19:31;6.70;;;4.53;;
177;SDS011;77;48.792;9.032;2023-04-03T06:21:58;6.90;;;4.13;;
177;SDS011;77;48.792;9.032;2023-04-03T06:24:23;7.53;;;4.70;;
177;SDS011;77;48.792;9.032;2023-04-03T06:26:48;7.33;;;4.70;;
177;SDS011;77;48.792;9.032;2023-04-03T06:29:14;7.93;;;4.70;;
177;SDS011;77;48.792;9.032;2023-04-03T06:31:39;7.77;;;4.60;;
177;SDS011;77;48.792;9.032;2023-04-03T06:34:04;8.77;;;4.30;;
177;SDS011;77;48.792;9.032;2023-04-03T06:36:29;9.83;;;4.70;;
177;SDS011;77;48.792;9.032;2023-04-03T06:38:56;6.00;;;4.23;;
177;SDS011;77;48.792;9.032;2023-04-03T06:41:21;7.93;;;5.10;;
177;SDS011;77;48.792;9.032;2023-04-03T06:43:46;7.43;;;4.40;;
177;SDS011;77;48.792;9.032;2023-04-03T06:46:13;8.10;;;4.67;;
177;SDS011;77;48.792;9.032;2023-04-03T06:48:38;7.07;;;4.50;;
177;SDS011;77;48.792;9.032;2023-04-03T06:51:04;7.10;;;4.70;;
177;SDS011;77;48.792;9.032;2023-04-03T06:53:29;8.67;;;4.60;;
177;SDS011;77;48.792;9.032;2023-04-03T06:55:55;6.20;;;4.33;;
177;SDS011;77;48.792;9.032;2023-04-03T06:58:20;6.73;;;4.53;;
177;SDS011;77;48.792;9.032;2023-04-03T07:00:45;6.43;;;4.53;;
177;SDS011;77;48.792;9.032;2023-04-03T07:03:11;8.03;;;4.50;;
177;SDS011;77;48.792;9.032;2023-04-03T07:05:36;7.20;;;4.70;;
177;SDS011;77;48.792;9.032;2023-04-03T07:08:01;6.70;;;4.57;;
177;SDS011;77;48.792;9.032;2023-04-03T07:10:26;6.43;;;4.87;;
177;SDS011;77;48.792;9.032;2023-04-03T07:12:53;8.50;;;4.57;;
177;SDS011;77;48.792;9.032;2023-04-03T07:15:18;8.20;;;4.77;;
177;SDS011;77;48.792;9.032;2023-04-03T07:17:43;7.50;;;4.80;;
177;SDS011;77;48.792;9.032;2023-04-03T07:20:08;7.10;;;4.83;;
177;SDS011;77;48.792;9.032;2023-04-03T07:22:33;9.30;;;5.13;;
177;SDS011;77;48.792;9.032;2023-04-03T07:24:59;7.40;;;5.00;;
177;SDS011;77;48.792;9.032;2023-04-03T07:27:24;7.40;;;5.07;;
177;SDS011;77;48.792;9.032;2023-04-03T07:29:50;6.63;;;4.40;;
177;SDS011;77;48.792;9.032;2023-04-03T07:32:15;8.63;;;5.43;;
177;SDS011;77;48.792;9.032;2023-04-03T07:34:41;7.83;;;4.60;;
177;SDS011;77;48.792;9.032;2023-04-03T07:37:06;8.20;;;5.40;;
177;SDS011;77;48.792;9.032;2023-04-03T07:39:31;8.90;;;5.27;;
177;SDS011;77;48.792;9.032;2023-04-03T07:41:56;6.63;;;4.50;;
177;SDS011;77;48.792;9.032;2023-04-03T07:44:21;10.80;;;5.30;;
177;SDS011;77;48.792;9.032;2023-04-03T07:46:48;9.37;;;5.37;;
177;SDS011;77;48.792;9.032;2023-04-03T07:49:13;7.53;;;5.30;;
177;SDS011;77;48.792;9.032;2023-04-03T07:51:38;9.10;;;5.37;;
177;SDS011;77;48.792;9.032;2023-04-03T07:54:03;8.63;;;5.47;;
177;SDS011;77;48.792;9.032;2023-04-03T07:56:28;8.50;;;4.90;;
177;SDS011;77;48.792;9.032;2023-04-03T07:58:54;8.40;;;4.67;;
177;SDS011;77;48.792;9.032;2023-04-03T08:01:19;9.10;;;5.03;;
177;SDS011;77;48.792;9.032;2023-04-03T08:03:45;8.03;;;5.37;;
177;SDS011;77;48.792;9.032;2023-04-03T08:06:11;9.83;;;5.60;;
177;SDS011;77;48.792;9.032;2023-04-03T08:08:36;10.00;;;5.87;;
177;SDS011;77;48.792;9.032;2023-04-03T08:11:01;11.73;;;6.00;;
177;SDS011;77;48.792;9.032;2023-04-03T08:13:27;10.30;;;5.30;;
177;SDS011;77;48.792;9.032;2023-04-03T08:15:52;8.93;;;5.10;;
177;SDS011;77;48.792;9.032;2023-04-03T08:18:17;10.20;;;5.70;;
177;SDS011;77;48.792;9.032;2023-04-03T08:20:44;8.73;;;5.77;;
177;SDS011;77;48.792;9.032;2023-04-03T08:23:09;9.80;;;5.47;;
177;SDS011;77;48.792;9.032;2023-04-03T08:25:37;9.50;;;5.17;;
177;SDS011;77;48.792;9.032;2023-04-03T08:28:02;8.03;;;5.00;;
177;SDS011;77;48.792;9.032;2023-04-03T08:30:27;10.50;;;5.60;;
177;SDS011;77;48.792;9.032;2023-04-03T08:32:53;8.73;;;5.20;;
177;SDS011;77;48.792;9.032;2023-04-03T08:35:18;8.63;;;5.07;;
177;SDS011;77;48.792;9.032;2023-04-03T08:37:44;9.40;;;5.07;;
177;SDS011;77;48.792;9.032;2023-04-03T08:40:12;9.73;;;5.03;;
177;SDS011;77;48.792;9.032;2023-04-03T08:42:40;11.43;;;5.33;;
177;SDS011;77;48.792;9.032;2023-04-03T08:45:08;9.37;;;5.03;;
177;SDS011;77;48.792;9.032;2023-04-03T08:47:36;9.10;;;4.90;;
177;SDS011;77;48.792;9.032;2023-04-03T08:50:03;8.37;;;5.53;;
177;SDS011;77;48.792;9.032;2023-04-03T08:52:32;11.10;;;5.80;;
177;SDS011;77;48.792;9.032;2023-04-03T08:55:02;8.70;;;5.53;;
177;SDS011;77;48.792;9.032;2023-04-03T08:57:29;7.70;;;5.13;;
177;SDS011;77;48.792;9.032;2023-04-03T09:00:03;7.23;;;5.07;;
177;SDS011;77;48.792;9.032;2023-04-03T09:02:30;6.97;;;5.20;;
177;SDS011;77;48.792;9.032;2023-04-03T09:04:55;6.80;;;4.77;;
177;SDS011;77;48.792;9.032;2023-04-03T09:07:22;8.33;;;5.43;;
177;SDS011;77;48.792;9.032;2023-04-03T09:09:50;7.93;;;5.07;;
177;SDS011;77;48.792;9.032;2023-04-03T09:12:18;10.00;;;5.60;;
177;SDS011;77;48.792;9.032;2023-04-03T09:14:46;9.33;;;5.37;;
177;SDS011;77;48.792;9.032;2023-04-03T09:17:15;11.47;;;5.50;;
177;SDS011;77;48.792;9.032;2023-04-03T09:19:47;8.20;;;5.10;;
177;SDS011;77;48.792;9.032;2023-04-03T09:22:16;6.93;;;4.70;;
177;SDS011;77;48.792;9.032;2023-04-03T09:24:42;9.50;;;5.10;;
177;SDS011;77;48.792;9.032;2023-04-03T09:27:09;11.07;;;5.07;;
177;SDS011;77;48.792;9.032;2023-04-03T09:29:37;6.10;;;4.50;;
177;SDS011;77;48.792;9.032;2023-04-03T09:32:12;10.23;;;5.47;;
177;SDS011;77;48.792;9.032;2023-04-03T09:34:42;7.97;;;5.07;;
177;SDS011;77;48.792;9.032;2023-04-03T09:37:08;6.80;;;4.90;;
177;SDS011;77;48.792;9.032;2023-04-03T09:39:48;7.10;;;4.73;;
177;SDS011;77;48.792;9.032;2023-04-03T09:42:14;7.87;;;5.10;;
177;SDS011;77;48.792;9.032;2023-04-03T09:44:43;6.13;;;4.50;;
177;SDS011;77;48.792;9.032;2023-04-03T09:47:18;8.40;;;5.10;;
177;SDS011;77;48.792;9.032;2023-04-03T09:49:44;6.93;;;4.50;;
177;SDS011;77;48.792;9.032;2023-04-03T09:52:18;8.07;;;4.63;;
177;SDS011;77;48.792;9.032;2023-04-03T09:54:43;8.67;;;4.60;;
177;SDS011;77;48.792;9.032;2023-04-03T09:57:10;8.50;;;4.10;;
177;SDS011;77;48.792;9.032;2023-04-03T09:59:36;6.77;;;4.70;;
177;SDS011;77;48.792;9.032;2023-04-03T10:02:04;6.40;;;4.30;;
177;SDS011;77;48.792;9.032;2023-04-03T10:04:43;8.73;;;4.63;;
177;SDS011;77;48.792;9.032;2023-04-03T10:09:54;6.70;;;4.37;;
177;SDS011;77;48.792;9.032;2023-04-03T10:12:20;10.10;;;4.43;;
177;SDS011;77;48.792;9.032;2023-04-03T10:14:53;7.13;;;4.43;;
177;SDS011;77;48.792;9.032;2023-04-03T10:17:21;7.70;;;4.40;;
177;SDS011;77;48.792;9.032;2023-04-03T10:19:50;5.50;;;3.90;;
177;SDS011;77;48.792;9.032;2023-04-03T10:22:19;7.50;;;5.00;;
177;SDS011;77;48.792;9.032;2023-04-03T10:24:48;8.00;;;4.40;;
177;SDS011;77;48.792;9.032;2023-04-03T10:27:16;5.93;;;4.10;;
177;SDS011;77;48.792;9.032;2023-04-03T10:29:46;5.97;;;4.17;;
177;SDS011;77;48.792;9.032;2023-04-03T10:32:17;7.47;;;4.23;;
177;SDS011;77;48.792;9.032;2023-04-03T10:34:47;5.90;;;4.00;;
177;SDS011;77;48.792;9.032;2023-04-03T10:37:13;5.20;;;3.83;;
177;SDS011;77;48.792;9.032;2023-04-03T10:39:43;5.93;;;3.50;;
177;SDS011;77;48.792;9.032;2023-04-03T10:42:13;6.50;;;3.90;;
177;SDS011;77;48.792;9.032;2023-04-03T10:44:41;8.40;;;3.90;;
177;SDS011;77;48.792;9.032;2023-04-03T10:47:07;5.50;;;3.90;;
177;SDS011;77;48.792;9.032;2023-04-03T10:49:37;6.37;;;4.00;;
177;SDS011;77;48.792;9.032;2023-04-03T10:52:11;6.00;;;4.40;;
177;SDS011;77;48.792;9.032;2023-04-03T10:54:38;5.80;;;3.90;;
177;SDS011;77;48.792;9.032;2023-04-03T10:57:05;5.47;;;3.80;;
177;SDS011;77;48.792;9.032;2023-04-03T10:59:31;4.67;;;3.60;;
177;SDS011;77;48.792;9.032;2023-04-03T11:01:58;5.50;;;3.90;;
177;SDS011;77;48.792;9.032;2023-04-03T11:04:25;7.63;;;3.93;;
177;SDS011;77;48.792;9.032;2023-04-03T11:06:53;6.80;;;4.07;;
177;SDS011;77;48.792;9.032;2023-04-03T11:09:23;5.53;;;3.90;;
177;SDS011;77;48.792;9.032;2023-04-03T11:11:50;6.10;;;4.53;;
177;SDS011;77;48.792;9.032;2023-04-03T11:14:17;5.67;;;3.80;;
177;SDS011;77;48.792;9.032;2023-04-03T11:16:46;6.03;;;3.90;;
177;SDS011;77;48.792;9.032;2023-04-03T11:19:14;6.10;;;3.77;;
177;SDS011;77;48.792;9.032;2023-04-03T11:21:42;6.20;;;3.77;;
177;SDS011;77;48.792;9.032;2023-04-03T11:24:12;6.40;;;3.77;;
177;SDS011;77;48.792;9.032;2023-04-03T11:26:42;7.40;;;3.90;;
177;SDS011;77;48.792;9.032;2023-04-03T11:29:08;5.70;;;3.63;;
177;SDS011;77;48.792;9.032;2023-04-03T11:31:38;6.03;;;3.60;;
177;SDS011;77;48.792;9.032;2023-04-03T11:34:08;6.47;;;4.03;;
177;SDS011;77;48.792;9.032;2023-04-03T11:36:40;8.23;;;4.00;;
177;SDS011;77;48.792;9.032;2023-04-03T11:39:09;7.43;;;3.40;;
177;SDS011;77;48.792;9.032;2023-04-03T11:41:39;5.60;;;3.70;;
177;SDS011;77;48.792;9.032;2023-04-03T11:44:06;4.90;;;3.50;;
177;SDS011;77;48.792;9.032;2023-04-03T11:46:50;6.17;;;3.80;;
177;SDS011;77;48.792;9.032;2023-04-03T11:51:56;8.43;;;3.53;;
177;SDS011;77;48.792;9.032;2023-04-03T11:54:43;5.87;;;3.57;;
177;SDS011;77;48.792;9.032;2023-04-03T12:02:45;6.47;;;3.80;;
177;SDS011;77;48.792;9.032;2023-04-03T12:05:26;5.53;;;3.50;;
177;SDS011;77;48.792;9.032;2023-04-03T12:10:32;4.97;;;3.30;;
177;SDS011;77;48.792;9.032;2023-04-03T12:12:57;5.27;;;3.37;;
177;SDS011;77;48.792;9.032;2023-04-03T12:15:24;5.73;;;3.20;;
177;SDS011;77;48.792;9.032;2023-04-03T12:17:51;6.87;;;3.27;;
177;SDS011;77;48.792;9.032;2023-04-03T12:23:07;8.03;;;3.50;;
177;SDS011;77;48.792;9.032;2023-04-03T12:25:41;6.20;;;3.67;;
177;SDS011;77;48.792;9.032;2023-04-03T12:28:11;5.10;;;3.60;;
177;SDS011;77;48.792;9.032;2023-04-03T12:30:36;5.13;;;3.40;;
177;SDS011;77;48.792;9.032;2023-04-03T12:33:13;6.20;;;3.70;;
177;SDS011;77;48.792;9.032;2023-04-03T12:35:43;5.37;;;3.67;;
177;SDS011;77;48.792;9.032;2023-04-03T12:38:19;4.80;;;3.40;;
177;SDS011;77;48.792;9.032;2023-04-03T12:40:46;5.90;;;3.50;;
177;SDS011;77;48.792;9.032;2023-04-03T12:43:22;5.40;;;3.60;;
177;SDS011;77;48.792;9.032;2023-04-03T12:45:50;6.73;;;3.60;;
177;SDS011;77;48.792;9.032;2023-04-03T12:48:20;5.30;;;3.40;;
177;SDS011;77;48.792;9.032;2023-04-03T12:50:47;5.70;;;3.30;;
177;SDS011;77;48.792;9.032;2023-04-03T12:53:13;5.70;;;3.30;;
177;SDS011;77;48.792;9.032;2023-04-03T12:55:38;5.10;;;3.37;;
177;SDS011;77;48.792;9.032;2023-04-03T12:58:13;5.50;;;3.23;;
177;SDS011;77;48.792;9.032;2023-04-03T13:08:25;5.07;;;3.30;;
177;SDS011;77;48.792;9.032;2023-04-03T13:10:54;4.73;;;3.23;;
177;SDS011;77;48.792;9.032;2023-04-03T13:13:20;9.00;;;4.20;;
177;SDS011;77;48.792;9.032;2023-04-03T13:15:46;6.70;;;3.90;;
177;SDS011;77;48.792;9.032;2023-04-03T13:18:21;7.77;;;3.70;;
177;SDS011;77;48.792;9.032;2023-04-03T13:20:46;7.90;;;3.80;;
177;SDS011;77;48.792;9.032;2023-04-03T13:23:12;6.27;;;3.50;;
177;SDS011;77;48.792;9.032;2023-04-03T13:25:42;4.20;;;3.23;;
177;SDS011;77;48.792;9.032;2023-04-03T13:28:09;5.53;;;3.67;;
177;SDS011;77;48.792;9.032;2023-04-03T13:30:36;6.27;;;3.40;;
177;SDS011;77;48.792;9.032;2023-04-03T13:33:03;5.97;;;3.70;;
177;SDS011;77;48.792;9.032;2023-04-03T13:35:30;5.33;;;3.70;;
177;SDS011;77;48.792;9.032;2023-04-03T13:37:57;6.43;;;3.77;;
177;SDS011;77;48.792;9.032;2023-04-03T13:40:23;5.13;;;3.93;;
177;SDS011;77;48.792;9.032;2023-04-03T13:42:57;5.40;;;3.57;;
177;SDS011;77;48.792;9.032;2023-04-03T13:45:24;4.90;;;3.60;;
177;SDS011;77;48.792;9.032;2023-04-03T13:47:51;5.20;;;3.53;;
177;SDS011;77;48.792;9.032;2023-04-03T13:50:17;6.50;;;3.87;;
177;SDS011;77;48.792;9.032;2023-04-03T13:52:43;11.10;;;4.10;;
177;SDS011;77;48.792;9.032;2023-04-03T13:55:18;5.73;;;3.47;;
177;SDS011;77;48.792;9.032;2023-04-03T13:57:52;5.27;;;3.53;;
177;SDS011;77;48.792;9.032;2023-04-03T14:00:19;5.57;;;3.57;;
177;SDS011;77;48.792;9.032;2023-04-03T14:02:47;7.50;;;3.97;;
177;SDS011;77;48.792;9.032;2023-04-03T14:05:12;7.50;;;3.50;;
177;SDS011;77;48.792;9.032;2023-04-03T14:07:37;6.10;;;3.40;;
177;SDS011;77;48.792;9.032;2023-04-03T14:10:02;6.35;;;3.72;;
177;SDS011;77;48.792;9.032;2023-04-03T14:12:29;5.10;;;3.43;;
177;SDS011;77;48.792;9.032;2023-04-03T14:14:57;6.23;;;3.53;;
177;SDS011;77;48.792;9.032;2023-04-03T14:17:24;5.60;;;3.60;;
177;SDS011;77;48.792;9.032;2023-04-03T14:19:49;5.43;;;3.63;;
177;SDS011;77;48.792;9.032;2023-04-03T14:22:15;6.53;;;3.57;;
177;SDS011;77;48.792;9.032;2023-04-03T14:24:40;5.13;;;3.50;;
177;SDS011;77;48.792;9.032;2023-04-03T14:27:08;7.87;;;3.80;;
177;SDS011;77;48.792;9.032;2023-04-03T14:29:38;4.93;;;3.60;;
177;SDS011;77;48.792;9.032;2023-04-03T14:32:04;5.47;;;3.60;;
177;SDS011;77;48.792;9.032;2023-04-03T14:34:30;5.33;;;3.60;;
177;SDS011;77;48.792;9.032;2023-04-03T14:36:55;5.05;;;3.67;;
177;SDS011;77;48.792;9.032;2023-04-03T14:39:20;7.40;;;4.10;;
177;SDS011;77;48.792;9.032;2023-04-03T14:41:45;5.03;;;4.00;;
177;SDS011;77;48.792;9.032;2023-04-03T14:44:11;5.83;;;3.77;;
177;SDS011;77;48.792;9.032;2023-04-03T14:46:37;6.30;;;3.80;;
177;SDS011;77;48.792;9.032;2023-04-03T14:49:05;6.57;;;3.83;;
177;SDS011;77;48.792;9.032;2023-04-03T14:51:37;4.80;;;3.33;;
177;SDS011;77;48.792;9.032;2023-04-03T14:54:02;7.10;;;3.80;;
177;SDS011;77;48.792;9.032;2023-04-03T14:56:28;5.17;;;3.80;;
177;SDS011;77;48.792;9.032;2023-04-03T14:58:54;5.17;;;3.47;;
177;SDS011;77;48.792;9.032;2023-04-03T15:01:20;7.00;;;3.47;;
177;SDS011;77;48.792;9.032;2023-04-03T15:03:45;5.47;;;3.53;;
177;SDS011;77;48.792;9.032;2023-04-03T15:06:12;5.30;;;3.50;;
177;SDS011;77;48.792;9.032;2023-04-03T15:08:37;4.83;;;3.30;;
177;SDS011;77;48.792;9.032;2023-04-03T15:11:03;4.77;;;3.47;;
177;SDS011;77;48.792;9.032;2023-04-03T15:13:28;6.13;;;3.30;;
177;SDS011;77;48.792;9.032;2023-04-03T15:15:53;4.10;;;3.23;;
177;SDS011;77;48.792;9.032;2023-04-03T15:18:20;4.97;;;3.30;;
177;SDS011;77;48.792;9.032;2023-04-03T15:20:45;4.23;;;3.40;;
177;SDS011;77;48.792;9.032;2023-04-03T15:23:14;4.10;;;3.30;;
177;SDS011;77;48.792;9.032;2023-04-03T15:25:40;5.07;;;3.20;;
177;SDS011;77;48.792;9.032;2023-04-03T15:28:05;5.30;;;3.30;;
177;SDS011;77;48.792;9.032;2023-04-03T15:30:30;5.70;;;3.50;;
177;SDS011;77;48.792;9.032;2023-04-03T15:32:56;5.77;;;3.40;;
177;SDS011;77;48.792;9.032;2023-04-03T15:35:21;5.37;;;3.80;;
177;SDS011;77;48.792;9.032;2023-04-03T15:37:46;8.50;;;3.50;;
177;SDS011;77;48.792;9.032;2023-04-03T15:40:13;4.90;;;3.20;;
177;SDS011;77;48.792;9.032;2023-04-03T15:42:38;6.73;;;3.63;;
177;SDS011;77;48.792;9.032;2023-04-03T15:45:04;5.90;;;3.57;;
177;SDS011;77;48.792;9.032;2023-04-03T15:47:29;4.30;;;3.50;;
177;SDS011;77;48.792;9.032;2023-04-03T15:49:54;5.80;;;3.47;;
177;SDS011;77;48.792;9.032;2023-04-03T15:52:20;4.80;;;3.43;;
177;SDS011;77;48.792;9.032;2023-04-03T15:54:45;4.87;;;3.20;;
177;SDS011;77;48.792;9.032;2023-04-03T15:57:12;5.00;;;3.53;;
177;SDS011;77;48.792;9.032;2023-04-03T15:59:37;6.20;;;3.40;;
177;SDS011;77;48.792;9.032;2023-04-03T16:02:03;5.87;;;3.50;;
177;SDS011;77;48.792;9.032;2023-04-03T16:04:30;4.87;;;3.50;;
177;SDS011;77;48.792;9.032;2023-04-03T16:06:55;5.40;;;3.40;;
177;SDS011;77;48.792;9.032;2023-04-03T16:09:20;4.63;;;3.60;;
177;SDS011;77;48.792;9.032;2023-04-03T16:11:45;5.70;;;3.80;;
177;SDS011;77;48.792;9.032;2023-04-03T16:14:12;6.07;;;3.45;;
177;SDS011;77;48.792;9.032;2023-04-03T16:16:37;6.00;;;3.57;;
177;SDS011;77;48.792;9.032;2023-04-03T16:19:02;5.03;;;3.53;;
177;SDS011;77;48.792;9.032;2023-04-03T16:21:28;4.93;;;3.30;;
177;SDS011;77;48.792;9.032;2023-04-03T16:23:53;4.70;;;3.40;;